Time;durP1;ratioP1;P1;durP2;ratioP2;P2;SDS_P1;SDS_P2;PMS_P1;PMS_P2;Temp;Humidity;BMP_temperature;BMP_pressure;BME280_temperature;BME280_humidity;BME280_pressure;Samples;Min_cycle;Max_cycle;Signal;HPM_P1;HPM_P2
2022/07/17 00:00:47;;;;;;;4.28;1.50;;;;;;;;;;5070956;28;20297;-17
2022/07/17 00:03:15;;;;;;;5.63;1.52;;;;;;;;;;5065320;28;20317;-17
2022/07/17 00:05:42;;;;;;;6.85;1.52;;;;;;;;;;5065037;28;20313;-17
2022/07/17 00:08:10;;;;;;;3.50;1.73;;;;;;;;;;5071045;28;20288;-17
2022/07/17 00:10:38;;;;;;;5.13;1.10;;;;;;;;;;5071864;28;20260;-17
2022/07/17 00:13:06;;;;;;;4.20;1.58;;;;;;;;;;5070173;28;20241;-17
2022/07/17 00:15:35;;;;;;;3.17;1.83;;;;;;;;;;5070350;28;20233;-17
2022/07/17 00:18:02;;;;;;;4.47;1.33;;;;;;;;;;5071763;28;20257;-17
2022/07/17 00:20:30;;;;;;;3.00;1.27;;;;;;;;;;5071552;28;20245;-17
2022/07/17 00:22:58;;;;;;;5.43;2.00;;;;;;;;;;5070305;28;20340;-17
2022/07/17 00:25:25;;;;;;;9.93;1.90;;;;;;;;;;5071260;28;21058;-17
2022/07/17 00:27:53;;;;;;;4.68;1.60;;;;;;;;;;5071436;28;20324;-17
2022/07/17 00:30:21;;;;;;;4.13;1.50;;;;;;;;;;5070691;28;20261;-17
2022/07/17 00:32:49;;;;;;;4.68;2.20;;;;;;;;;;5071006;28;20237;-16
2022/07/17 00:35:17;;;;;;;3.03;1.42;;;;;;;;;;5071421;28;20233;-17
2022/07/17 00:37:47;;;;;;;5.70;1.48;;;;;;;;;;5070048;28;20229;-17
2022/07/17 00:40:15;;;;;;;4.78;1.88;;;;;;;;;;5070037;28;20229;-16
2022/07/17 00:42:43;;;;;;;4.68;1.80;;;;;;;;;;5071366;28;20281;-17
2022/07/17 00:45:10;;;;;;;5.07;1.33;;;;;;;;;;5071000;28;21134;-17
2022/07/17 00:47:44;;;;;;;5.55;1.55;;;;;;;;;;5056201;28;20245;-17
2022/07/17 00:50:13;;;;;;;5.05;1.50;;;;;;;;;;5062564;28;20312;-17
2022/07/17 00:52:41;;;;;;;3.60;1.70;;;;;;;;;;5070921;28;20233;-17
2022/07/17 00:55:09;;;;;;;5.47;1.40;;;;;;;;;;5071143;28;20397;-17
2022/07/17 00:57:56;;;;;;;3.33;1.52;;;;;;;;;;5070409;28;20217;-17
2022/07/17 01:00:24;;;;;;;5.75;1.40;;;;;;;;;;5070313;28;20307;-17
2022/07/17 01:02:52;;;;;;;5.57;1.70;;;;;;;;;;5069442;28;20271;-17
2022/07/17 01:05:21;;;;;;;2.97;1.70;;;;;;;;;;5059364;28;20807;-17
2022/07/17 01:07:48;;;;;;;2.90;1.60;;;;;;;;;;5069916;28;20980;-16
2022/07/17 01:10:17;;;;;;;5.13;1.60;;;;;;;;;;5068895;28;20222;-17
2022/07/17 01:12:44;;;;;;;7.18;1.63;;;;;;;;;;5067636;28;20229;-17
2022/07/17 01:15:12;;;;;;;3.10;1.20;;;;;;;;;;5067558;28;20255;-17
2022/07/17 01:17:39;;;;;;;3.78;1.30;;;;;;;;;;5071000;28;21030;-17
2022/07/17 01:20:07;;;;;;;4.50;1.33;;;;;;;;;;5067969;28;20229;-17
2022/07/17 01:22:41;;;;;;;2.25;1.20;;;;;;;;;;5070342;28;20252;-17
2022/07/17 01:25:09;;;;;;;4.90;1.48;;;;;;;;;;5070175;28;20233;-17
2022/07/17 01:27:37;;;;;;;4.72;1.48;;;;;;;;;;5065682;28;20312;-17
2022/07/17 01:30:05;;;;;;;3.72;1.30;;;;;;;;;;5070718;28;20237;-17
2022/07/17 01:32:33;;;;;;;2.53;1.05;;;;;;;;;;5064709;28;20355;-17
2022/07/17 01:35:00;;;;;;;4.53;1.40;;;;;;;;;;5061678;28;20312;-17
2022/07/17 01:37:28;;;;;;;3.08;1.10;;;;;;;;;;5069650;28;20684;-16
2022/07/17 01:39:57;;;;;;;4.03;1.33;;;;;;;;;;5070547;28;20236;-17
2022/07/17 01:42:25;;;;;;;3.45;1.40;;;;;;;;;;5070543;28;20233;-17
2022/07/17 01:44:53;;;;;;;2.90;1.15;;;;;;;;;;5069896;28;20225;-16
2022/07/17 01:47:20;;;;;;;3.63;1.40;;;;;;;;;;5069486;28;20230;-17
2022/07/17 01:49:49;;;;;;;3.67;1.48;;;;;;;;;;5069324;28;20236;-16
2022/07/17 01:52:16;;;;;;;3.10;1.40;;;;;;;;;;5056845;28;20239;-16
2022/07/17 01:54:44;;;;;;;3.42;1.40;;;;;;;;;;5070536;28;20240;-16
2022/07/17 01:57:12;;;;;;;3.65;1.02;;;;;;;;;;5066814;28;20327;-17
2022/07/17 01:59:40;;;;;;;4.07;1.17;;;;;;;;;;5062490;28;20795;-17
2022/07/17 02:02:07;;;;;;;6.18;1.40;;;;;;;;;;5069895;28;20248;-16
2022/07/17 02:04:35;;;;;;;3.55;1.10;;;;;;;;;;5060269;28;20248;-16
2022/07/17 02:07:03;;;;;;;5.90;1.55;;;;;;;;;;5066400;28;20340;-17
2022/07/17 02:09:30;;;;;;;4.72;1.50;;;;;;;;;;5066719;28;21091;-17
2022/07/17 02:11:57;;;;;;;3.30;1.25;;;;;;;;;;5064233;28;20307;-16
2022/07/17 02:14:26;;;;;;;4.32;1.25;;;;;;;;;;5067781;28;20712;-16
2022/07/17 02:16:53;;;;;;;2.70;1.20;;;;;;;;;;5069155;28;20280;-16
2022/07/17 02:19:21;;;;;;;2.92;1.20;;;;;;;;;;5070014;28;20231;-16
2022/07/17 02:21:48;;;;;;;4.75;1.70;;;;;;;;;;5079375;22;20254;-21
2022/07/17 02:24:16;;;;;;;2.90;1.27;;;;;;;;;;5056396;28;20236;-20
2022/07/17 02:26:43;;;;;;;2.15;1.25;;;;;;;;;;5057934;28;20236;-20
2022/07/17 02:29:10;;;;;;;2.10;1.10;;;;;;;;;;5068435;28;20226;-18
2022/07/17 02:31:39;;;;;;;3.35;1.40;;;;;;;;;;5065481;28;20225;-20
2022/07/17 02:34:06;;;;;;;3.10;1.23;;;;;;;;;;5068705;28;20240;-20
2022/07/17 02:36:34;;;;;;;2.70;0.98;;;;;;;;;;5069108;28;20468;-20
2022/07/17 02:39:02;;;;;;;3.20;1.45;;;;;;;;;;5071143;28;20228;-20
2022/07/17 02:41:29;;;;;;;3.17;1.35;;;;;;;;;;5070682;28;21018;-20
2022/07/17 02:43:57;;;;;;;5.20;1.42;;;;;;;;;;5071302;28;20984;-19
2022/07/17 02:46:24;;;;;;;4.72;1.45;;;;;;;;;;5073067;28;20233;-19
2022/07/17 02:48:53;;;;;;;4.88;1.45;;;;;;;;;;5073323;28;20938;-20
2022/07/17 02:51:21;;;;;;;2.95;1.20;;;;;;;;;;5072989;28;20232;-20
2022/07/17 02:53:48;;;;;;;4.20;1.50;;;;;;;;;;5071734;28;20233;-19
2022/07/17 02:56:16;;;;;;;2.88;1.33;;;;;;;;;;5073022;28;20624;-19
2022/07/17 02:58:43;;;;;;;4.90;1.38;;;;;;;;;;5073322;28;20703;-20
2022/07/17 03:01:10;;;;;;;3.85;1.13;;;;;;;;;;5072353;28;21105;-20
2022/07/17 03:03:38;;;;;;;3.10;1.30;;;;;;;;;;5061699;28;20229;-20
2022/07/17 03:06:07;;;;;;;2.42;1.30;;;;;;;;;;5073211;28;20260;-20
2022/07/17 03:08:34;;;;;;;5.32;1.77;;;;;;;;;;5072993;28;20811;-20
2022/07/17 03:11:01;;;;;;;2.63;1.10;;;;;;;;;;5072540;28;20931;-20
2022/07/17 03:13:29;;;;;;;2.40;1.48;;;;;;;;;;5058510;28;20242;-20
2022/07/17 03:15:56;;;;;;;4.60;1.50;;;;;;;;;;5073143;28;20311;-20
2022/07/17 03:18:24;;;;;;;3.97;1.40;;;;;;;;;;5072274;28;20236;-20
2022/07/17 03:20:51;;;;;;;4.65;1.45;;;;;;;;;;5072642;28;20425;-20
2022/07/17 03:23:20;;;;;;;2.72;1.27;;;;;;;;;;5072648;28;20228;-19
2022/07/17 03:25:47;;;;;;;3.95;1.55;;;;;;;;;;5072068;28;20932;-19
2022/07/17 03:28:15;;;;;;;4.35;1.33;;;;;;;;;;5072070;28;20253;-20
2022/07/17 03:30:42;;;;;;;4.32;1.20;;;;;;;;;;5071870;28;20727;-20
2022/07/17 03:33:09;;;;;;;2.63;1.15;;;;;;;;;;5071949;28;20225;-20
2022/07/17 03:35:37;;;;;;;2.20;1.05;;;;;;;;;;5072478;28;20230;-20
2022/07/17 03:38:04;;;;;;;3.45;1.20;;;;;;;;;;5072078;28;20241;-21
2022/07/17 03:40:33;;;;;;;4.60;1.23;;;;;;;;;;5072178;28;20309;-20
2022/07/17 03:43:00;;;;;;;2.75;1.23;;;;;;;;;;5072498;28;20311;-21
2022/07/17 03:45:28;;;;;;;3.05;1.30;;;;;;;;;;5072454;28;20233;-18
2022/07/17 03:47:55;;;;;;;1.58;1.20;;;;;;;;;;5063497;28;21270;-20
2022/07/17 03:50:23;;;;;;;5.78;2.22;;;;;;;;;;5071100;28;20233;-20
2022/07/17 03:52:50;;;;;;;7.35;1.20;;;;;;;;;;5072571;28;20221;-19
2022/07/17 03:55:18;;;;;;;3.08;1.20;;;;;;;;;;5071549;28;20245;-20
2022/07/17 03:57:47;;;;;;;2.63;1.13;;;;;;;;;;5072104;28;20229;-20
2022/07/17 04:00:14;;;;;;;6.55;1.65;;;;;;;;;;5070906;28;20232;-20
2022/07/17 04:02:42;;;;;;;6.43;1.20;;;;;;;;;;5058087;28;20944;-20
2022/07/17 04:05:10;;;;;;;1.85;1.17;;;;;;;;;;5072524;28;20272;-20
2022/07/17 04:07:37;;;;;;;5.10;1.20;;;;;;;;;;5067757;28;20312;-20
2022/07/17 04:10:05;;;;;;;2.20;1.15;;;;;;;;;;5071419;28;20236;-20
2022/07/17 04:12:32;;;;;;;1.98;1.10;;;;;;;;;;5071775;28;20233;-19
2022/07/17 04:15:01;;;;;;;4.78;1.42;;;;;;;;;;5072048;28;20267;-20
2022/07/17 04:17:28;;;;;;;2.47;1.05;;;;;;;;;;5067022;28;20234;-19
2022/07/17 04:19:56;;;;;;;2.08;1.00;;;;;;;;;;5070913;28;20231;-19
2022/07/17 04:22:23;;;;;;;3.22;1.13;;;;;;;;;;5070956;28;20241;-20
2022/07/17 04:24:50;;;;;;;2.25;1.15;;;;;;;;;;5072158;28;20233;-20
2022/07/17 04:27:18;;;;;;;2.78;1.50;;;;;;;;;;5071449;28;20233;-20
2022/07/17 04:29:45;;;;;;;3.17;1.40;;;;;;;;;;5071370;28;20229;-20
2022/07/17 04:32:14;;;;;;;2.60;1.25;;;;;;;;;;5071063;28;20228;-20
2022/07/17 04:34:41;;;;;;;3.67;0.95;;;;;;;;;;5070122;28;20704;-20
2022/07/17 04:37:09;;;;;;;3.13;1.05;;;;;;;;;;5072395;28;20718;-20
2022/07/17 04:39:36;;;;;;;4.22;1.27;;;;;;;;;;5072195;28;20320;-19
2022/07/17 04:42:03;;;;;;;3.35;1.27;;;;;;;;;;5068352;28;20226;-19
2022/07/17 04:44:31;;;;;;;3.22;1.35;;;;;;;;;;5071122;28;20719;-20
2022/07/17 04:46:58;;;;;;;4.13;1.27;;;;;;;;;;5072038;28;20704;-20
2022/07/17 04:49:27;;;;;;;5.15;1.75;;;;;;;;;;5066287;28;20317;-20
2022/07/17 04:51:54;;;;;;;1.95;1.23;;;;;;;;;;5072365;28;21055;-19
2022/07/17 04:54:22;;;;;;;5.43;1.42;;;;;;;;;;5071566;28;20241;-20
2022/07/17 04:56:49;;;;;;;2.35;1.30;;;;;;;;;;5067605;28;20724;-20
2022/07/17 04:59:16;;;;;;;4.00;1.42;;;;;;;;;;5061440;28;20225;-21
2022/07/17 05:01:44;;;;;;;1.88;1.30;;;;;;;;;;5070804;28;20228;-20
2022/07/17 05:04:11;;;;;;;2.38;1.30;;;;;;;;;;5070564;28;20257;-20
2022/07/17 05:06:40;;;;;;;2.67;1.50;;;;;;;;;;5069856;28;20226;-20
2022/07/17 05:09:07;;;;;;;2.40;1.40;;;;;;;;;;5070352;28;20237;-20
2022/07/17 05:11:36;;;;;;;3.42;1.50;;;;;;;;;;5071900;28;20241;-19
2022/07/17 05:14:03;;;;;;;3.05;1.40;;;;;;;;;;5071117;28;20235;-19
2022/07/17 05:16:31;;;;;;;2.45;1.42;;;;;;;;;;5070998;28;20243;-20
2022/07/17 05:18:58;;;;;;;3.17;1.48;;;;;;;;;;5071675;28;20226;-20
2022/07/17 05:21:26;;;;;;;2.58;1.45;;;;;;;;;;5070559;28;20256;-20
2022/07/17 05:23:55;;;;;;;2.03;1.27;;;;;;;;;;5071533;28;20337;-20
2022/07/17 05:26:22;;;;;;;3.35;1.60;;;;;;;;;;5062099;28;20230;-20
2022/07/17 05:28:49;;;;;;;3.38;1.23;;;;;;;;;;5064901;28;20248;-21
2022/07/17 05:31:17;;;;;;;3.60;1.83;;;;;;;;;;5071840;28;20233;-20
2022/07/17 05:33:44;;;;;;;3.03;1.73;;;;;;;;;;5070940;28;20233;-20
2022/07/17 05:36:12;;;;;;;5.78;1.50;;;;;;;;;;5071038;28;20332;-21
2022/07/17 05:38:40;;;;;;;4.03;1.70;;;;;;;;;;5070983;28;20251;-18
2022/07/17 05:41:08;;;;;;;6.18;1.95;;;;;;;;;;5071049;28;20233;-18
2022/07/17 05:43:36;;;;;;;3.47;1.92;;;;;;;;;;5069342;28;20229;-18
2022/07/17 05:46:03;;;;;;;5.13;1.80;;;;;;;;;;5064291;28;20221;-21
2022/07/17 05:48:31;;;;;;;7.43;1.80;;;;;;;;;;5066907;28;20239;-19
2022/07/17 05:50:58;;;;;;;5.40;2.17;;;;;;;;;;5066804;28;20617;-21
2022/07/17 05:53:26;;;;;;;8.00;2.30;;;;;;;;;;5066604;28;20260;-21
2022/07/17 05:55:53;;;;;;;8.90;2.30;;;;;;;;;;5067490;28;20237;-21
2022/07/17 05:58:22;;;;;;;4.70;1.63;;;;;;;;;;5066529;28;20244;-18
2022/07/17 06:00:49;;;;;;;4.32;1.95;;;;;;;;;;5067769;28;20240;-20
2022/07/17 06:03:16;;;;;;;5.03;1.55;;;;;;;;;;5069456;28;21008;-20
2022/07/17 06:05:44;;;;;;;3.85;1.90;;;;;;;;;;5062877;28;20977;-18
2022/07/17 06:08:12;;;;;;;4.38;2.08;;;;;;;;;;5067192;28;20236;-18
2022/07/17 06:10:39;;;;;;;10.20;1.88;;;;;;;;;;5071043;28;20229;-21
2022/07/17 06:13:07;;;;;;;8.32;2.10;;;;;;;;;;5073886;28;20221;-19
2022/07/17 06:15:35;;;;;;;3.40;1.70;;;;;;;;;;5073060;28;20801;-19
2022/07/17 06:18:04;;;;;;;6.45;1.58;;;;;;;;;;5073634;28;20237;-19
2022/07/17 06:20:31;;;;;;;5.38;1.90;;;;;;;;;;5073673;28;20692;-21
2022/07/17 06:22:59;;;;;;;5.65;1.70;;;;;;;;;;5072282;28;20229;-18
2022/07/17 06:25:26;;;;;;;5.95;1.40;;;;;;;;;;5073678;28;20225;-18
2022/07/17 06:27:54;;;;;;;3.90;1.50;;;;;;;;;;5073572;28;20244;-19
2022/07/17 06:30:21;;;;;;;2.60;1.38;;;;;;;;;;5072549;28;20225;-20
2022/07/17 06:32:50;;;;;;;3.97;1.63;;;;;;;;;;5073116;28;20225;-20
2022/07/17 06:35:17;;;;;;;7.32;1.65;;;;;;;;;;5072490;28;20241;-20
2022/07/17 06:37:45;;;;;;;5.60;1.70;;;;;;;;;;5073079;28;20312;-20
2022/07/17 06:40:12;;;;;;;8.80;1.95;;;;;;;;;;5067944;28;20328;-20
2022/07/17 06:42:40;;;;;;;7.32;1.63;;;;;;;;;;5070258;28;20337;-20
2022/07/17 06:45:08;;;;;;;4.63;1.58;;;;;;;;;;5066320;28;20232;-20
2022/07/17 06:47:35;;;;;;;5.70;1.63;;;;;;;;;;5065584;28;20237;-18
2022/07/17 06:50:04;;;;;;;7.05;1.30;;;;;;;;;;5066798;28;20237;-20
2022/07/17 06:52:31;;;;;;;3.10;1.13;;;;;;;;;;5069927;28;20232;-20
2022/07/17 06:55:00;;;;;;;5.38;1.38;;;;;;;;;;5072148;28;20234;-20
2022/07/17 06:57:27;;;;;;;5.20;1.50;;;;;;;;;;5072638;28;20241;-20
2022/07/17 06:59:55;;;;;;;7.22;1.80;;;;;;;;;;5071177;28;20233;-18
2022/07/17 07:02:22;;;;;;;3.30;1.30;;;;;;;;;;5067787;28;20229;-18
2022/07/17 07:04:49;;;;;;;6.30;1.60;;;;;;;;;;5069704;28;20221;-17
2022/07/17 07:07:18;;;;;;;5.35;1.48;;;;;;;;;;5069687;28;20241;-20
2022/07/17 07:09:46;;;;;;;7.05;1.20;;;;;;;;;;5066494;28;20230;-20
2022/07/17 07:12:13;;;;;;;10.35;1.50;;;;;;;;;;5062521;28;20625;-18
2022/07/17 07:14:41;;;;;;;5.55;1.35;;;;;;;;;;5068696;28;20233;-18
2022/07/17 07:17:08;;;;;;;8.95;1.80;;;;;;;;;;5068096;28;20288;-20
2022/07/17 07:19:35;;;;;;;8.55;1.80;;;;;;;;;;5069361;28;20788;-20
2022/07/17 07:22:03;;;;;;;7.55;2.17;;;;;;;;;;5059130;28;20728;-20
2022/07/17 07:24:31;;;;;;;9.02;1.48;;;;;;;;;;5069091;28;20257;-19
2022/07/17 07:26:59;;;;;;;7.07;1.23;;;;;;;;;;5063103;28;20815;-20
2022/07/17 07:29:26;;;;;;;5.35;1.30;;;;;;;;;;5072032;28;21036;-20
2022/07/17 07:31:54;;;;;;;6.25;1.23;;;;;;;;;;5066892;28;20221;-20
2022/07/17 07:34:21;;;;;;;9.20;2.50;;;;;;;;;;5061563;28;20321;-20
2022/07/17 07:36:49;;;;;;;10.10;1.58;;;;;;;;;;5071456;28;20241;-20
2022/07/17 07:39:16;;;;;;;11.45;1.77;;;;;;;;;;5070934;28;20272;-20
2022/07/17 07:41:45;;;;;;;11.73;1.65;;;;;;;;;;5072667;28;20240;-20
2022/07/17 07:44:12;;;;;;;8.27;1.63;;;;;;;;;;5071864;28;20225;-20
2022/07/17 07:46:52;;;;;;;7.60;2.33;;;;;;;;;;5071760;28;20725;-20
2022/07/17 07:49:19;;;;;;;8.13;2.17;;;;;;;;;;5068535;28;20714;-20
2022/07/17 07:51:46;;;;;;;6.85;1.80;;;;;;;;;;5071682;28;20237;-20
2022/07/17 07:54:31;;;;;;;5.30;1.98;;;;;;;;;;5071635;28;20229;-20
2022/07/17 07:56:59;;;;;;;6.85;1.58;;;;;;;;;;5072040;28;20742;-20
2022/07/17 07:59:27;;;;;;;6.05;1.52;;;;;;;;;;5057931;28;20231;-20
2022/07/17 08:01:55;;;;;;;12.55;2.15;;;;;;;;;;5064183;28;20729;-20
2022/07/17 08:04:23;;;;;;;6.85;1.48;;;;;;;;;;5061921;28;21490;-20
2022/07/17 08:06:50;;;;;;;9.48;1.33;;;;;;;;;;5064735;28;21082;-20
2022/07/17 08:09:18;;;;;;;3.95;1.35;;;;;;;;;;5072852;28;20316;-20
2022/07/17 08:11:45;;;;;;;5.53;1.20;;;;;;;;;;5072647;28;20695;-19
2022/07/17 08:14:14;;;;;;;5.35;1.25;;;;;;;;;;5070229;28;21115;-19
2022/07/17 08:16:44;;;;;;;4.63;1.13;;;;;;;;;;5072146;28;20241;-19
2022/07/17 08:19:11;;;;;;;7.35;1.85;;;;;;;;;;5072451;28;20235;-18
2022/07/17 08:21:39;;;;;;;3.85;1.30;;;;;;;;;;5071663;28;20239;-19
2022/07/17 08:24:06;;;;;;;6.32;1.90;;;;;;;;;;5065438;28;20884;-20
2022/07/17 08:26:34;;;;;;;8.48;1.38;;;;;;;;;;5071856;28;20237;-19
2022/07/17 08:29:01;;;;;;;12.50;1.70;;;;;;;;;;5072639;28;20332;-20
2022/07/17 08:31:30;;;;;;;5.32;1.30;;;;;;;;;;5071052;28;20221;-20
2022/07/17 08:33:57;;;;;;;7.85;1.70;;;;;;;;;;5071494;28;21032;-20
2022/07/17 08:36:25;;;;;;;6.70;1.42;;;;;;;;;;5071268;28;20609;-20
2022/07/17 08:38:53;;;;;;;5.95;1.08;;;;;;;;;;5070864;28;20226;-20
2022/07/17 08:41:22;;;;;;;8.40;1.40;;;;;;;;;;5071068;28;20233;-19
2022/07/17 08:43:50;;;;;;;4.93;1.20;;;;;;;;;;5071414;28;20233;-20
2022/07/17 08:46:18;;;;;;;5.25;1.40;;;;;;;;;;5070755;28;20230;-19
2022/07/17 08:48:48;;;;;;;4.32;1.33;;;;;;;;;;5070829;28;20698;-20
2022/07/17 08:51:16;;;;;;;7.40;1.67;;;;;;;;;;5070691;28;20221;-20
2022/07/17 08:53:44;;;;;;;4.03;1.20;;;;;;;;;;5069143;28;21118;-20
2022/07/17 08:56:11;;;;;;;4.07;1.05;;;;;;;;;;5069684;28;20233;-19
2022/07/17 08:58:38;;;;;;;6.43;1.33;;;;;;;;;;5068817;28;20823;-20
2022/07/17 09:01:06;;;;;;;2.80;0.95;;;;;;;;;;5070898;28;20229;-20
2022/07/17 09:03:33;;;;;;;3.47;1.23;;;;;;;;;;5070536;28;20231;-20
2022/07/17 09:06:19;;;;;;;7.63;1.20;;;;;;;;;;5071371;28;20696;-20
2022/07/17 09:08:46;;;;;;;3.55;1.17;;;;;;;;;;5070579;28;20229;-20
2022/07/17 09:11:14;;;;;;;3.60;1.05;;;;;;;;;;5070269;28;20890;-20
2022/07/17 09:13:43;;;;;;;4.63;0.98;;;;;;;;;;5070520;28;20229;-20
2022/07/17 09:16:12;;;;;;;4.78;1.30;;;;;;;;;;5070275;28;20229;-20
2022/07/17 09:18:43;;;;;;;5.35;1.60;;;;;;;;;;5069685;28;20270;-20
2022/07/17 09:21:16;;;;;;;6.93;1.15;;;;;;;;;;5056692;28;20892;-20
2022/07/17 09:23:45;;;;;;;4.05;1.10;;;;;;;;;;5070686;28;20229;-20
2022/07/17 09:26:12;;;;;;;5.50;0.98;;;;;;;;;;5069883;28;20230;-20
2022/07/17 09:28:46;;;;;;;5.55;1.08;;;;;;;;;;5071618;28;20448;-20
2022/07/17 09:31:14;;;;;;;7.00;1.02;;;;;;;;;;5071182;28;20230;-20
2022/07/17 09:33:42;;;;;;;4.72;0.95;;;;;;;;;;5071501;28;20237;-20
2022/07/17 09:36:13;;;;;;;3.83;1.13;;;;;;;;;;5064153;28;20243;-20
2022/07/17 09:38:41;;;;;;;4.47;1.10;;;;;;;;;;5056554;28;20237;-19
2022/07/17 09:41:11;;;;;;;3.50;1.02;;;;;;;;;;5061513;28;20280;-22
2022/07/17 09:43:40;;;;;;;3.95;0.90;;;;;;;;;;5066611;28;20231;-20
2022/07/17 09:46:12;;;;;;;4.13;1.00;;;;;;;;;;5069100;28;20241;-20
2022/07/17 09:48:41;;;;;;;6.25;1.25;;;;;;;;;;5070825;28;21007;-19
2022/07/17 09:51:09;;;;;;;8.15;1.13;;;;;;;;;;5067456;28;20234;-20
2022/07/17 09:53:37;;;;;;;4.68;1.00;;;;;;;;;;5065745;28;20233;-20
2022/07/17 09:56:04;;;;;;;5.13;0.95;;;;;;;;;;5071511;28;20222;-19
2022/07/17 09:58:33;;;;;;;4.15;1.25;;;;;;;;;;5066926;28;20296;-19
2022/07/17 10:01:00;;;;;;;6.25;1.35;;;;;;;;;;5070270;28;20233;-20
2022/07/17 10:03:28;;;;;;;4.93;1.15;;;;;;;;;;5069847;28;20630;-20
2022/07/17 10:05:56;;;;;;;4.50;1.10;;;;;;;;;;5067039;28;20233;-20
2022/07/17 10:08:23;;;;;;;4.63;1.00;;;;;;;;;;5069923;28;20241;-20
2022/07/17 10:10:51;;;;;;;4.75;1.08;;;;;;;;;;5069741;28;20229;-20
2022/07/17 10:13:19;;;;;;;4.70;1.00;;;;;;;;;;5069832;28;21092;-20
2022/07/17 10:15:49;;;;;;;4.15;1.05;;;;;;;;;;5069310;28;20221;-20
2022/07/17 10:18:16;;;;;;;5.75;0.95;;;;;;;;;;5069835;28;20720;-21
2022/07/17 10:20:45;;;;;;;5.80;0.90;;;;;;;;;;5069784;28;20234;-20
2022/07/17 10:23:13;;;;;;;4.40;1.00;;;;;;;;;;5062141;28;21185;-18
2022/07/17 10:25:40;;;;;;;5.47;1.15;;;;;;;;;;5066427;28;20233;-20
2022/07/17 10:28:08;;;;;;;2.67;0.95;;;;;;;;;;5071556;28;20234;-19
2022/07/17 10:30:35;;;;;;;3.58;0.90;;;;;;;;;;5069402;28;20260;-20
2022/07/17 10:33:06;;;;;;;4.55;1.38;;;;;;;;;;5069949;28;20241;-20
2022/07/17 10:35:42;;;;;;;6.35;1.25;;;;;;;;;;5070287;28;20598;-20
2022/07/17 10:38:11;;;;;;;6.85;0.93;;;;;;;;;;5063480;28;20336;-20
2022/07/17 10:40:38;;;;;;;6.00;1.17;;;;;;;;;;5068717;28;20240;-20
2022/07/17 10:43:06;;;;;;;6.60;1.10;;;;;;;;;;5070016;28;20222;-20
2022/07/17 10:45:35;;;;;;;5.18;1.13;;;;;;;;;;5069302;28;20288;-20
2022/07/17 10:48:03;;;;;;;6.25;1.08;;;;;;;;;;5069614;28;20308;-20
2022/07/17 10:50:35;;;;;;;5.25;0.73;;;;;;;;;;5068564;28;20276;-20
2022/07/17 10:53:12;;;;;;;3.35;0.98;;;;;;;;;;5070828;28;20233;-20
2022/07/17 10:55:45;;;;;;;3.53;0.70;;;;;;;;;;5067546;28;20672;-20
2022/07/17 10:58:19;;;;;;;4.55;0.77;;;;;;;;;;5070039;28;20237;-19
2022/07/17 11:00:56;;;;;;;4.03;0.88;;;;;;;;;;5066038;28;20233;-19
2022/07/17 11:03:23;;;;;;;7.32;1.02;;;;;;;;;;5070651;28;20229;-20
2022/07/17 11:05:52;;;;;;;7.03;1.00;;;;;;;;;;5066969;28;20229;-20
2022/07/17 11:08:19;;;;;;;4.63;1.30;;;;;;;;;;5065974;28;20237;-20
2022/07/17 11:10:47;;;;;;;4.47;0.90;;;;;;;;;;5069962;28;20226;-20
2022/07/17 11:13:14;;;;;;;3.50;0.68;;;;;;;;;;5069054;28;20878;-19
2022/07/17 11:15:42;;;;;;;2.83;0.88;;;;;;;;;;5069519;28;20320;-19
2022/07/17 11:18:11;;;;;;;5.30;0.75;;;;;;;;;;5068875;28;21029;-20
2022/07/17 11:20:46;;;;;;;3.40;0.80;;;;;;;;;;5069541;28;20229;-20
2022/07/17 11:23:15;;;;;;;3.53;0.95;;;;;;;;;;5068199;28;21027;-20
2022/07/17 11:25:51;;;;;;;5.22;1.20;;;;;;;;;;5070821;28;20299;-20
2022/07/17 11:28:27;;;;;;;2.90;1.00;;;;;;;;;;5068545;28;20229;-19
2022/07/17 11:30:54;;;;;;;3.08;1.10;;;;;;;;;;5068721;28;20316;-19
2022/07/17 11:33:22;;;;;;;10.80;1.65;;;;;;;;;;5065709;28;20253;-20
2022/07/17 11:35:50;;;;;;;3.25;1.10;;;;;;;;;;5067817;28;20823;-19
2022/07/17 11:38:18;;;;;;;2.22;1.30;;;;;;;;;;5071394;28;20233;-20
2022/07/17 11:40:46;;;;;;;3.83;1.00;;;;;;;;;;5071297;28;20225;-19
2022/07/17 11:43:14;;;;;;;5.95;1.35;;;;;;;;;;5069500;28;20696;-20
2022/07/17 11:45:41;;;;;;;4.47;0.95;;;;;;;;;;5071572;28;20229;-20
2022/07/17 11:48:08;;;;;;;6.32;1.10;;;;;;;;;;5071371;28;20236;-19
2022/07/17 11:50:36;;;;;;;4.65;1.38;;;;;;;;;;5071273;28;20251;-19
2022/07/17 11:53:04;;;;;;;3.25;1.02;;;;;;;;;;5069607;28;20236;-19
2022/07/17 11:55:37;;;;;;;2.22;0.93;;;;;;;;;;5072191;28;20235;-20
2022/07/17 11:58:04;;;;;;;2.63;1.15;;;;;;;;;;5071829;28;20234;-20
2022/07/17 12:00:32;;;;;;;3.22;0.90;;;;;;;;;;5071862;28;20249;-19
2022/07/17 12:03:01;;;;;;;5.68;1.30;;;;;;;;;;5071278;28;20277;-20
2022/07/17 12:05:29;;;;;;;2.67;0.90;;;;;;;;;;5071594;28;20221;-20
2022/07/17 12:07:57;;;;;;;1.65;0.80;;;;;;;;;;5070872;28;20233;-20
2022/07/17 12:10:24;;;;;;;5.07;1.30;;;;;;;;;;5070593;28;20230;-20
2022/07/17 12:12:54;;;;;;;2.22;1.02;;;;;;;;;;5071745;28;20229;-19
2022/07/17 12:15:21;;;;;;;3.47;0.88;;;;;;;;;;5071322;28;20233;-19
2022/07/17 12:17:49;;;;;;;2.90;1.08;;;;;;;;;;5070714;28;20233;-19
2022/07/17 12:20:16;;;;;;;3.15;0.93;;;;;;;;;;5071672;28;20234;-19
2022/07/17 12:22:44;;;;;;;1.20;0.82;;;;;;;;;;5071451;28;20252;-20
2022/07/17 12:25:22;;;;;;;2.35;1.00;;;;;;;;;;5068279;28;20238;-20
2022/07/17 12:27:49;;;;;;;2.47;0.93;;;;;;;;;;5071610;28;20229;-19
2022/07/17 12:30:18;;;;;;;2.35;0.85;;;;;;;;;;5071386;28;20229;-20
2022/07/17 12:32:47;;;;;;;2.08;0.70;;;;;;;;;;5070989;28;20229;-18
2022/07/17 12:35:14;;;;;;;4.22;0.80;;;;;;;;;;5071015;28;20736;-18
2022/07/17 12:37:42;;;;;;;3.75;0.70;;;;;;;;;;5070950;28;20260;-19
2022/07/17 12:40:09;;;;;;;2.25;0.90;;;;;;;;;;5071480;28;20715;-20
2022/07/17 12:42:43;;;;;;;1.75;0.80;;;;;;;;;;5067557;28;20257;-19
2022/07/17 12:45:10;;;;;;;2.38;1.00;;;;;;;;;;5071358;28;20269;-20
2022/07/17 12:47:39;;;;;;;3.58;0.85;;;;;;;;;;5071871;28;20772;-19
2022/07/17 12:50:08;;;;;;;4.05;0.93;;;;;;;;;;5069988;28;20677;-21
2022/07/17 12:52:35;;;;;;;4.60;0.98;;;;;;;;;;5067616;28;20226;-20
2022/07/17 12:55:03;;;;;;;6.40;1.33;;;;;;;;;;5067790;28;20233;-21
2022/07/17 12:57:30;;;;;;;2.40;0.80;;;;;;;;;;5060017;28;20299;-21
2022/07/17 12:59:57;;;;;;;1.85;0.88;;;;;;;;;;5066276;28;20668;-19
2022/07/17 13:02:25;;;;;;;4.38;1.15;;;;;;;;;;5065115;28;20689;-19
2022/07/17 13:04:54;;;;;;;2.00;0.90;;;;;;;;;;5067676;28;20264;-19
2022/07/17 13:07:27;;;;;;;2.78;1.00;;;;;;;;;;5063527;28;20237;-18
2022/07/17 13:09:55;;;;;;;6.43;0.93;;;;;;;;;;5066975;28;20230;-19
2022/07/17 13:12:23;;;;;;;2.33;0.80;;;;;;;;;;5064080;28;20314;-19
2022/07/17 13:14:51;;;;;;;3.53;1.02;;;;;;;;;;5067767;28;20257;-19
2022/07/17 13:17:18;;;;;;;2.60;0.77;;;;;;;;;;5064946;28;20712;-19
2022/07/17 13:19:45;;;;;;;3.67;1.02;;;;;;;;;;5066613;28;20241;-19
2022/07/17 13:22:14;;;;;;;2.25;1.00;;;;;;;;;;5064966;28;20241;-20
2022/07/17 13:24:41;;;;;;;2.72;1.05;;;;;;;;;;5064357;28;21456;-20
2022/07/17 13:27:09;;;;;;;5.07;1.20;;;;;;;;;;5064394;28;20987;-19
2022/07/17 13:29:37;;;;;;;3.08;1.02;;;;;;;;;;5067030;28;20348;-20
2022/07/17 13:32:04;;;;;;;2.05;0.80;;;;;;;;;;5067187;28;20236;-20
2022/07/17 13:34:32;;;;;;;4.07;1.23;;;;;;;;;;5064891;28;20771;-19
2022/07/17 13:37:00;;;;;;;2.92;1.10;;;;;;;;;;5067019;28;20230;-20
2022/07/17 13:39:33;;;;;;;2.40;1.13;;;;;;;;;;5059832;28;20485;-19
2022/07/17 13:42:01;;;;;;;3.40;1.10;;;;;;;;;;5060658;28;20288;-19
2022/07/17 13:44:28;;;;;;;6.25;1.45;;;;;;;;;;5060123;28;20264;-19
2022/07/17 13:46:56;;;;;;;6.88;1.55;;;;;;;;;;5063509;28;20233;-19
2022/07/17 13:49:23;;;;;;;2.50;1.08;;;;;;;;;;5064000;28;20670;-20
2022/07/17 13:51:51;;;;;;;3.08;1.40;;;;;;;;;;5065286;28;20276;-19
2022/07/17 13:54:18;;;;;;;1.67;0.95;;;;;;;;;;5063574;28;20291;-18
2022/07/17 13:56:47;;;;;;;4.03;1.25;;;;;;;;;;5067439;28;20245;-20
2022/07/17 13:59:14;;;;;;;4.15;1.20;;;;;;;;;;5064482;28;20240;-20
2022/07/17 14:01:41;;;;;;;4.35;1.40;;;;;;;;;;5067166;28;20237;-20
2022/07/17 14:04:09;;;;;;;3.45;1.35;;;;;;;;;;5062768;28;20237;-19
2022/07/17 14:06:36;;;;;;;3.15;1.20;;;;;;;;;;5056991;28;20942;-20
2022/07/17 14:09:04;;;;;;;2.88;1.50;;;;;;;;;;5062110;28;20704;-19
2022/07/17 14:11:31;;;;;;;6.13;1.60;;;;;;;;;;5059393;28;20225;-20
2022/07/17 14:14:00;;;;;;;2.45;1.33;;;;;;;;;;5066346;28;20244;-20
2022/07/17 14:16:27;;;;;;;3.63;1.45;;;;;;;;;;5063361;28;20355;-20
2022/07/17 14:19:01;;;;;;;4.82;1.80;;;;;;;;;;5067181;28;20754;-20
2022/07/17 14:21:31;;;;;;;5.40;1.60;;;;;;;;;;5064552;28;20267;-20
2022/07/17 14:23:59;;;;;;;5.55;1.90;;;;;;;;;;5066536;28;20239;-20
2022/07/17 14:26:28;;;;;;;5.55;1.60;;;;;;;;;;5063378;28;20362;-20
2022/07/17 14:28:56;;;;;;;5.45;1.67;;;;;;;;;;5066936;28;20225;-20
2022/07/17 14:31:25;;;;;;;4.50;1.42;;;;;;;;;;5064358;28;20233;-20
2022/07/17 14:33:52;;;;;;;4.57;1.83;;;;;;;;;;5069957;28;20234;-20
2022/07/17 14:36:19;;;;;;;8.05;2.25;;;;;;;;;;5069804;28;20380;-20
2022/07/17 14:38:47;;;;;;;6.85;1.77;;;;;;;;;;5067443;28;20244;-20
2022/07/17 14:41:14;;;;;;;6.47;2.00;;;;;;;;;;5069977;28;20243;-19
2022/07/17 14:43:42;;;;;;;6.72;1.75;;;;;;;;;;5068009;28;20237;-20
2022/07/17 14:46:10;;;;;;;2.95;1.42;;;;;;;;;;5068909;28;20795;-20
2022/07/17 14:48:38;;;;;;;3.45;1.75;;;;;;;;;;5067832;28;20328;-20